sensor_id;sensor_type;location;lat;lon;timestamp;pressure;altitude;pressure_sealevel;temperature;humidity
56713;BME280;42589;45.536;9.032;2023-02-04T00:00:17;100056.06;;;13.55;48.01
56713;BME280;42589;45.536;9.032;2023-02-04T00:03:19;100083.66;;;12.52;50.60
56713;BME280;42589;45.536;9.032;2023-02-04T00:06:20;100091.78;;;14.35;46.90
56713;BME280;42589;45.536;9.032;2023-02-04T00:09:21;100044.84;;;13.92;46.62
56713;BME280;42589;45.536;9.032;2023-02-04T00:12:22;100110.50;;;14.11;46.87
56713;BME280;42589;45.536;9.032;2023-02-04T00:15:22;100112.00;;;14.30;46.71
56713;BME280;42589;45.536;9.032;2023-02-04T00:18:23;100101.44;;;13.04;48.99
56713;BME280;42589;45.536;9.032;2023-02-04T00:21:24;100060.22;;;13.57;47.33
56713;BME280;42589;45.536;9.032;2023-02-04T00:24:25;100032.56;;;12.65;48.46
56713;BME280;42589;45.536;9.032;2023-02-04T00:27:26;100048.25;;;12.68;48.59
56713;BME280;42589;45.536;9.032;2023-02-04T00:30:27;100048.50;;;12.83;47.40
56713;BME280;42589;45.536;9.032;2023-02-04T00:33:27;100025.00;;;13.62;46.62
56713;BME280;42589;45.536;9.032;2023-02-04T00:36:28;100059.91;;;13.93;44.83
56713;BME280;42589;45.536;9.032;2023-02-04T00:39:29;100023.19;;;14.98;41.40
56713;BME280;42589;45.536;9.032;2023-02-04T00:42:30;100035.69;;;15.06;41.23
56713;BME280;42589;45.536;9.032;2023-02-04T00:45:32;100045.69;;;15.43;40.75
56713;BME280;42589;45.536;9.032;2023-02-04T00:48:33;100031.13;;;15.15;40.80
56713;BME280;42589;45.536;9.032;2023-02-04T00:51:36;100094.84;;;15.50;40.96
56713;BME280;42589;45.536;9.032;2023-02-04T00:54:37;100050.91;;;15.14;41.50
56713;BME280;42589;45.536;9.032;2023-02-04T00:57:40;100031.72;;;15.02;40.60
56713;BME280;42589;45.536;9.032;2023-02-04T01:00:40;100037.84;;;14.71;41.41
56713;BME280;42589;45.536;9.032;2023-02-04T01:03:41;100026.75;;;14.91;40.19
56713;BME280;42589;45.536;9.032;2023-02-04T01:06:42;100037.50;;;14.82;40.86
56713;BME280;42589;45.536;9.032;2023-02-04T01:09:43;100040.91;;;14.99;40.33
56713;BME280;42589;45.536;9.032;2023-02-04T01:12:45;100031.19;;;15.06;40.47
56713;BME280;42589;45.536;9.032;2023-02-04T01:15:46;100044.88;;;15.12;39.65
56713;BME280;42589;45.536;9.032;2023-02-04T01:18:46;100027.44;;;15.16;39.45
56713;BME280;42589;45.536;9.032;2023-02-04T01:21:47;100011.53;;;14.44;40.41
56713;BME280;42589;45.536;9.032;2023-02-04T01:24:48;100015.63;;;14.15;40.40
56713;BME280;42589;45.536;9.032;2023-02-04T01:27:51;100074.88;;;15.07;39.35
56713;BME280;42589;45.536;9.032;2023-02-04T01:30:53;100016.53;;;14.94;38.35
56713;BME280;42589;45.536;9.032;2023-02-04T01:33:58;100005.28;;;14.99;38.74
56713;BME280;42589;45.536;9.032;2023-02-04T01:36:59;100033.47;;;15.18;38.74
56713;BME280;42589;45.536;9.032;2023-02-04T01:40:00;100059.22;;;14.88;39.72
56713;BME280;42589;45.536;9.032;2023-02-04T01:43:01;99986.28;;;14.46;40.30
56713;BME280;42589;45.536;9.032;2023-02-04T01:46:03;100064.41;;;14.81;40.34
56713;BME280;42589;45.536;9.032;2023-02-04T01:49:05;99972.25;;;14.36;40.23
56713;BME280;42589;45.536;9.032;2023-02-04T01:52:06;100027.09;;;14.24;41.09
56713;BME280;42589;45.536;9.032;2023-02-04T01:55:14;100053.97;;;14.55;40.15
56713;BME280;42589;45.536;9.032;2023-02-04T01:58:16;100014.97;;;13.88;40.35
56713;BME280;42589;45.536;9.032;2023-02-04T02:01:39;99971.56;;;14.42;39.78
56713;BME280;42589;45.536;9.032;2023-02-04T02:04:43;99970.06;;;14.39;39.25
56713;BME280;42589;45.536;9.032;2023-02-04T02:07:44;100047.66;;;14.87;39.43
56713;BME280;42589;45.536;9.032;2023-02-04T02:10:46;100031.69;;;14.71;39.81
56713;BME280;42589;45.536;9.032;2023-02-04T02:13:48;100025.84;;;13.87;40.30
56713;BME280;42589;45.536;9.032;2023-02-04T02:16:49;100013.78;;;14.15;39.37
56713;BME280;42589;45.536;9.032;2023-02-04T02:19:51;100020.63;;;14.74;38.17
56713;BME280;42589;45.536;9.032;2023-02-04T02:22:59;100002.78;;;14.66;38.19
56713;BME280;42589;45.536;9.032;2023-02-04T02:26:01;99993.38;;;14.70;37.34
56713;BME280;42589;45.536;9.032;2023-02-04T02:29:03;99983.69;;;14.22;37.63
56713;BME280;42589;45.536;9.032;2023-02-04T02:32:04;99957.50;;;14.09;37.85
56713;BME280;42589;45.536;9.032;2023-02-04T02:35:06;99974.09;;;14.35;37.53
56713;BME280;42589;45.536;9.032;2023-02-04T02:51:16;100016.09;;;14.74;36.47
56713;BME280;42589;45.536;9.032;2023-02-04T02:54:28;99951.13;;;14.10;37.17
56713;BME280;42589;45.536;9.032;2023-02-04T02:57:29;99958.03;;;13.88;37.21
56713;BME280;42589;45.536;9.032;2023-02-04T03:00:30;99983.09;;;13.62;37.75
56713;BME280;42589;45.536;9.032;2023-02-04T03:03:36;100010.94;;;13.27;38.25
56713;BME280;42589;45.536;9.032;2023-02-04T03:06:39;99927.00;;;13.70;37.04
56713;BME280;42589;45.536;9.032;2023-02-04T03:09:40;99975.78;;;12.81;37.99
56713;BME280;42589;45.536;9.032;2023-02-04T03:12:42;99925.50;;;13.60;37.25
56713;BME280;42589;45.536;9.032;2023-02-04T03:15:45;99989.00;;;14.30;35.61
56713;BME280;42589;45.536;9.032;2023-02-04T03:18:48;99917.16;;;13.22;36.63
56713;BME280;42589;45.536;9.032;2023-02-04T03:21:49;99913.09;;;14.39;34.64
56713;BME280;42589;45.536;9.032;2023-02-04T03:24:53;99963.22;;;13.73;36.58
56713;BME280;42589;45.536;9.032;2023-02-04T03:27:56;99952.88;;;13.37;36.36
56713;BME280;42589;45.536;9.032;2023-02-04T03:30:59;99910.69;;;14.13;34.90
56713;BME280;42589;45.536;9.032;2023-02-04T03:33:59;99926.19;;;13.37;36.17
56713;BME280;42589;45.536;9.032;2023-02-04T03:40:11;99954.81;;;14.01;35.66
56713;BME280;42589;45.536;9.032;2023-02-04T03:43:22;99971.38;;;14.91;34.30
56713;BME280;42589;45.536;9.032;2023-02-04T03:46:23;99970.22;;;14.54;34.64
56713;BME280;42589;45.536;9.032;2023-02-04T03:49:25;99970.59;;;14.82;34.65
56713;BME280;42589;45.536;9.032;2023-02-04T03:52:27;99917.28;;;14.33;34.90
56713;BME280;42589;45.536;9.032;2023-02-04T03:55:28;99916.38;;;14.49;34.38
56713;BME280;42589;45.536;9.032;2023-02-04T03:58:34;99916.22;;;14.11;35.15
56713;BME280;42589;45.536;9.032;2023-02-04T04:01:36;99916.09;;;13.88;35.44
56713;BME280;42589;45.536;9.032;2023-02-04T04:04:38;99899.09;;;13.81;36.09
56713;BME280;42589;45.536;9.032;2023-02-04T04:07:39;99952.25;;;14.24;35.86
56713;BME280;42589;45.536;9.032;2023-02-04T04:10:41;99946.28;;;14.13;36.22
56713;BME280;42589;45.536;9.032;2023-02-04T04:13:42;99971.69;;;14.09;36.84
56713;BME280;42589;45.536;9.032;2023-02-04T04:16:43;99898.50;;;13.38;37.32
56713;BME280;42589;45.536;9.032;2023-02-04T04:19:45;99943.72;;;13.40;38.27
56713;BME280;42589;45.536;9.032;2023-02-04T04:22:45;99948.03;;;13.74;37.66
56713;BME280;42589;45.536;9.032;2023-02-04T04:25:49;99963.72;;;13.19;39.01
56713;BME280;42589;45.536;9.032;2023-02-04T04:28:50;99956.06;;;13.65;37.95
56713;BME280;42589;45.536;9.032;2023-02-04T04:31:52;99915.25;;;12.73;38.78
56713;BME280;42589;45.536;9.032;2023-02-04T04:34:53;99951.84;;;13.22;38.25
56713;BME280;42589;45.536;9.032;2023-02-04T04:37:54;99963.91;;;13.59;37.76
56713;BME280;42589;45.536;9.032;2023-02-04T04:40:55;99954.06;;;13.59;37.47
56713;BME280;42589;45.536;9.032;2023-02-04T04:43:56;99936.03;;;13.29;38.15
56713;BME280;42589;45.536;9.032;2023-02-04T04:46:57;99904.84;;;13.29;37.61
56713;BME280;42589;45.536;9.032;2023-02-04T04:49:58;99919.69;;;13.32;38.13
56713;BME280;42589;45.536;9.032;2023-02-04T04:52:59;99897.28;;;13.00;38.18
56713;BME280;42589;45.536;9.032;2023-02-04T04:56:00;99886.28;;;12.78;38.27
56713;BME280;42589;45.536;9.032;2023-02-04T04:59:02;99886.63;;;12.25;38.99
56713;BME280;42589;45.536;9.032;2023-02-04T05:02:02;99891.38;;;12.47;39.25
56713;BME280;42589;45.536;9.032;2023-02-04T05:05:04;99948.34;;;13.05;38.84
56713;BME280;42589;45.536;9.032;2023-02-04T05:08:06;99908.25;;;12.72;38.76
56713;BME280;42589;45.536;9.032;2023-02-04T05:11:12;99942.34;;;13.11;38.71
56713;BME280;42589;45.536;9.032;2023-02-04T05:14:13;99925.63;;;12.85;38.38
56713;BME280;42589;45.536;9.032;2023-02-04T05:17:16;99943.50;;;13.09;38.17
56713;BME280;42589;45.536;9.032;2023-02-04T05:20:17;99973.03;;;13.07;38.84
56713;BME280;42589;45.536;9.032;2023-02-04T05:23:19;99965.34;;;13.12;38.32
56713;BME280;42589;45.536;9.032;2023-02-04T05:26:20;99913.06;;;12.61;38.55
56713;BME280;42589;45.536;9.032;2023-02-04T05:29:22;99974.47;;;12.35;39.88
56713;BME280;42589;45.536;9.032;2023-02-04T05:32:23;100001.94;;;12.69;39.19
56713;BME280;42589;45.536;9.032;2023-02-04T05:35:24;99927.06;;;12.63;38.15
56713;BME280;42589;45.536;9.032;2023-02-04T05:38:24;99929.88;;;12.61;37.97
56713;BME280;42589;45.536;9.032;2023-02-04T05:41:26;99922.03;;;12.43;38.43
56713;BME280;42589;45.536;9.032;2023-02-04T05:44:26;99964.16;;;12.98;37.55
56713;BME280;42589;45.536;9.032;2023-02-04T05:47:28;99952.31;;;12.85;38.01
56713;BME280;42589;45.536;9.032;2023-02-04T05:50:29;99948.47;;;12.95;37.37
56713;BME280;42589;45.536;9.032;2023-02-04T05:53:30;99933.91;;;12.65;37.45
56713;BME280;42589;45.536;9.032;2023-02-04T05:59:57;99970.06;;;12.60;37.50
56713;BME280;42589;45.536;9.032;2023-02-04T06:02:59;99942.91;;;12.64;36.55
56713;BME280;42589;45.536;9.032;2023-02-04T06:06:00;99927.75;;;12.73;36.24
56713;BME280;42589;45.536;9.032;2023-02-04T06:15:19;99926.22;;;12.62;35.61
56713;BME280;42589;45.536;9.032;2023-02-04T06:18:20;99978.88;;;13.19;35.92
56713;BME280;42589;45.536;9.032;2023-02-04T06:21:21;99987.22;;;13.24;36.00
56713;BME280;42589;45.536;9.032;2023-02-04T06:24:22;99988.59;;;13.28;35.63
56713;BME280;42589;45.536;9.032;2023-02-04T06:33:43;99959.47;;;12.92;36.56
56713;BME280;42589;45.536;9.032;2023-02-04T06:46:16;99964.25;;;12.30;37.83
56713;BME280;42589;45.536;9.032;2023-02-04T06:49:17;99926.00;;;12.05;38.51
56713;BME280;42589;45.536;9.032;2023-02-04T06:52:18;99974.63;;;12.84;37.86
56713;BME280;42589;45.536;9.032;2023-02-04T06:55:20;99998.28;;;12.36;39.57
56713;BME280;42589;45.536;9.032;2023-02-04T06:58:22;99967.88;;;11.51;40.52
56713;BME280;42589;45.536;9.032;2023-02-04T07:01:22;100001.00;;;11.48;41.19
56713;BME280;42589;45.536;9.032;2023-02-04T07:04:26;99988.69;;;11.73;40.84
56713;BME280;42589;45.536;9.032;2023-02-04T07:07:27;100011.47;;;11.50;41.96
56713;BME280;42589;45.536;9.032;2023-02-04T07:10:31;99954.91;;;12.60;39.73
56713;BME280;42589;45.536;9.032;2023-02-04T07:13:31;99993.50;;;12.14;40.96
56713;BME280;42589;45.536;9.032;2023-02-04T07:16:36;99951.78;;;12.81;39.81
56713;BME280;42589;45.536;9.032;2023-02-04T07:19:37;99927.53;;;13.25;38.07
56713;BME280;42589;45.536;9.032;2023-02-04T07:22:39;99937.00;;;13.60;37.87
56713;BME280;42589;45.536;9.032;2023-02-04T07:25:41;99934.53;;;13.59;37.80
56713;BME280;42589;45.536;9.032;2023-02-04T07:28:43;99979.09;;;13.58;38.32
56713;BME280;42589;45.536;9.032;2023-02-04T07:31:44;99975.56;;;13.90;38.58
56713;BME280;42589;45.536;9.032;2023-02-04T07:34:45;100006.47;;;13.93;37.73
56713;BME280;42589;45.536;9.032;2023-02-04T07:37:47;99992.97;;;14.42;37.37
56713;BME280;42589;45.536;9.032;2023-02-04T07:40:48;100014.84;;;14.46;36.19
56713;BME280;42589;45.536;9.032;2023-02-04T07:43:49;99984.59;;;13.89;37.33
56713;BME280;42589;45.536;9.032;2023-02-04T07:46:50;99986.28;;;13.74;37.69
56713;BME280;42589;45.536;9.032;2023-02-04T07:49:51;100015.63;;;13.82;38.47
56713;BME280;42589;45.536;9.032;2023-02-04T07:52:54;100011.56;;;14.83;35.94
56713;BME280;42589;45.536;9.032;2023-02-04T07:55:55;100004.91;;;14.71;36.54
56713;BME280;42589;45.536;9.032;2023-02-04T07:58:55;100019.59;;;15.14;35.92
56713;BME280;42589;45.536;9.032;2023-02-04T08:01:56;99998.13;;;15.22;35.18
56713;BME280;42589;45.536;9.032;2023-02-04T08:04:57;100017.88;;;14.90;35.27
56713;BME280;42589;45.536;9.032;2023-02-04T08:07:58;100010.75;;;15.37;34.12
56713;BME280;42589;45.536;9.032;2023-02-04T08:11:00;99995.25;;;15.47;34.32
56713;BME280;42589;45.536;9.032;2023-02-04T08:14:01;100016.13;;;15.83;33.63
56713;BME280;42589;45.536;9.032;2023-02-04T08:17:02;100017.41;;;15.18;34.58
56713;BME280;42589;45.536;9.032;2023-02-04T08:20:03;100018.84;;;16.12;32.95
56713;BME280;42589;45.536;9.032;2023-02-04T08:23:04;100015.34;;;16.41;32.91
56713;BME280;42589;45.536;9.032;2023-02-04T08:26:12;100018.50;;;16.30;34.40
56713;BME280;42589;45.536;9.032;2023-02-04T08:29:17;100007.28;;;16.27;32.98
56713;BME280;42589;45.536;9.032;2023-02-04T08:32:20;99979.53;;;16.49;32.08
56713;BME280;42589;45.536;9.032;2023-02-04T08:35:20;100018.41;;;16.83;32.01
56713;BME280;42589;45.536;9.032;2023-02-04T08:38:21;100033.06;;;17.16;32.08
56713;BME280;42589;45.536;9.032;2023-02-04T08:41:22;100030.22;;;17.03;32.38
56713;BME280;42589;45.536;9.032;2023-02-04T08:44:23;100033.38;;;17.28;31.77
56713;BME280;42589;45.536;9.032;2023-02-04T08:47:24;100043.94;;;17.73;31.65
56713;BME280;42589;45.536;9.032;2023-02-04T08:50:25;100025.53;;;18.19;30.31
56713;BME280;42589;45.536;9.032;2023-02-04T08:53:28;100018.25;;;18.13;30.70
56713;BME280;42589;45.536;9.032;2023-02-04T08:56:29;100041.47;;;18.84;30.53
56713;BME280;42589;45.536;9.032;2023-02-04T08:59:30;100035.97;;;19.12;29.41
56713;BME280;42589;45.536;9.032;2023-02-04T09:02:31;100045.81;;;19.39;29.51
56713;BME280;42589;45.536;9.032;2023-02-04T09:05:32;100013.25;;;19.34;29.25
56713;BME280;42589;45.536;9.032;2023-02-04T09:08:33;100012.00;;;19.43;29.83
56713;BME280;42589;45.536;9.032;2023-02-04T09:11:34;100052.69;;;19.48;29.74
56713;BME280;42589;45.536;9.032;2023-02-04T09:14:35;100008.50;;;19.49;30.08
56713;BME280;42589;45.536;9.032;2023-02-04T09:17:39;100015.56;;;19.51;30.20
56713;BME280;42589;45.536;9.032;2023-02-04T09:20:44;100000.06;;;19.86;29.84
56713;BME280;42589;45.536;9.032;2023-02-04T09:23:51;100000.41;;;19.63;29.84
56713;BME280;42589;45.536;9.032;2023-02-04T09:26:53;100029.94;;;20.17;29.08
56713;BME280;42589;45.536;9.032;2023-02-04T09:29:54;100049.66;;;20.18;29.95
56713;BME280;42589;45.536;9.032;2023-02-04T09:32:55;100065.44;;;21.13;29.13
56713;BME280;42589;45.536;9.032;2023-02-04T09:35:56;100033.09;;;20.86;29.96
56713;BME280;42589;45.536;9.032;2023-02-04T09:38:57;100022.19;;;21.13;29.73
56713;BME280;42589;45.536;9.032;2023-02-04T09:42:03;100007.22;;;21.10;29.60
56713;BME280;42589;45.536;9.032;2023-02-04T09:45:05;100061.75;;;21.77;28.19
56713;BME280;42589;45.536;9.032;2023-02-04T09:48:06;100057.41;;;21.76;28.50
56713;BME280;42589;45.536;9.032;2023-02-04T09:51:11;100056.09;;;21.78;28.75
56713;BME280;42589;45.536;9.032;2023-02-04T09:54:20;100071.28;;;22.11;28.13
56713;BME280;42589;45.536;9.032;2023-02-04T09:57:22;100059.31;;;22.44;27.40
56713;BME280;42589;45.536;9.032;2023-02-04T10:00:25;100077.34;;;22.75;27.82
56713;BME280;42589;45.536;9.032;2023-02-04T10:03:26;100081.53;;;22.89;27.46
56713;BME280;42589;45.536;9.032;2023-02-04T10:06:27;100083.94;;;22.42;27.94
56713;BME280;42589;45.536;9.032;2023-02-04T10:09:29;100056.56;;;22.87;27.16
56713;BME280;42589;45.536;9.032;2023-02-04T10:12:30;100070.41;;;22.79;24.96
56713;BME280;42589;45.536;9.032;2023-02-04T10:15:31;100109.81;;;23.00;23.70
56713;BME280;42589;45.536;9.032;2023-02-04T10:18:35;100092.59;;;24.86;22.40
56713;BME280;42589;45.536;9.032;2023-02-04T10:21:36;100102.31;;;24.46;22.40
56713;BME280;42589;45.536;9.032;2023-02-04T10:24:37;100100.28;;;24.89;21.79
56713;BME280;42589;45.536;9.032;2023-02-04T10:27:53;100100.94;;;25.19;21.31
56713;BME280;42589;45.536;9.032;2023-02-04T10:30:54;100096.81;;;23.99;22.00
56713;BME280;42589;45.536;9.032;2023-02-04T10:34:12;100100.53;;;24.87;21.58
56713;BME280;42589;45.536;9.032;2023-02-04T10:37:22;100098.19;;;25.31;21.13
56713;BME280;42589;45.536;9.032;2023-02-04T10:40:28;100096.22;;;25.43;21.21
56713;BME280;42589;45.536;9.032;2023-02-04T10:43:28;100100.25;;;25.98;20.36
56713;BME280;42589;45.536;9.032;2023-02-04T10:46:30;100087.66;;;24.47;21.16
56713;BME280;42589;45.536;9.032;2023-02-04T10:49:31;100084.94;;;24.71;20.75
56713;BME280;42589;45.536;9.032;2023-02-04T10:52:36;100096.88;;;25.34;20.73
56713;BME280;42589;45.536;9.032;2023-02-04T10:55:37;100080.97;;;26.72;19.72
56713;BME280;42589;45.536;9.032;2023-02-04T10:58:38;100099.56;;;25.91;20.77
56713;BME280;42589;45.536;9.032;2023-02-04T11:01:42;100105.44;;;26.00;20.18
56713;BME280;42589;45.536;9.032;2023-02-04T11:04:43;100094.56;;;26.33;19.81
56713;BME280;42589;45.536;9.032;2023-02-04T11:07:47;100092.50;;;26.07;20.04
56713;BME280;42589;45.536;9.032;2023-02-04T11:11:00;100103.16;;;25.63;20.24
56713;BME280;42589;45.536;9.032;2023-02-04T11:14:01;100112.66;;;25.20;20.42
56713;BME280;42589;45.536;9.032;2023-02-04T11:17:03;100103.16;;;25.63;20.06
56713;BME280;42589;45.536;9.032;2023-02-04T11:20:16;100095.47;;;26.22;19.31
56713;BME280;42589;45.536;9.032;2023-02-04T11:23:30;100070.84;;;26.51;19.41
56713;BME280;42589;45.536;9.032;2023-02-04T11:26:34;100102.50;;;25.73;20.19
56713;BME280;42589;45.536;9.032;2023-02-04T11:29:38;100050.25;;;25.59;19.73
56713;BME280;42589;45.536;9.032;2023-02-04T11:32:38;100050.38;;;25.35;19.93
56713;BME280;42589;45.536;9.032;2023-02-04T11:35:59;100057.88;;;25.28;19.71
56713;BME280;42589;45.536;9.032;2023-02-04T11:39:15;100064.44;;;24.92;20.26
56713;BME280;42589;45.536;9.032;2023-02-04T11:42:20;100090.25;;;26.04;19.68
56713;BME280;42589;45.536;9.032;2023-02-04T11:45:29;100062.66;;;25.66;18.92
56713;BME280;42589;45.536;9.032;2023-02-04T11:48:31;100112.28;;;26.87;18.79
56713;BME280;42589;45.536;9.032;2023-02-04T11:51:33;100047.34;;;25.48;19.25
56713;BME280;42589;45.536;9.032;2023-02-04T11:54:35;100063.78;;;25.54;19.20
56713;BME280;42589;45.536;9.032;2023-02-04T11:57:41;100086.06;;;25.96;18.91
56713;BME280;42589;45.536;9.032;2023-02-04T12:00:45;100116.50;;;26.10;19.16
56713;BME280;42589;45.536;9.032;2023-02-04T12:04:01;100096.97;;;26.30;19.09
56713;BME280;42589;45.536;9.032;2023-02-04T12:07:03;100095.47;;;25.60;19.34
56713;BME280;42589;45.536;9.032;2023-02-04T12:13:25;100086.78;;;26.25;18.88
56713;BME280;42589;45.536;9.032;2023-02-04T12:16:43;100047.84;;;25.45;19.42
56713;BME280;42589;45.536;9.032;2023-02-04T12:19:48;100043.63;;;25.38;19.04
56713;BME280;42589;45.536;9.032;2023-02-04T12:22:49;100060.09;;;24.91;19.52
56713;BME280;42589;45.536;9.032;2023-02-04T12:25:51;100046.44;;;25.43;19.00
56713;BME280;42589;45.536;9.032;2023-02-04T12:28:52;100094.16;;;26.25;19.21
56713;BME280;42589;45.536;9.032;2023-02-04T12:31:59;100080.72;;;25.73;18.64
56713;BME280;42589;45.536;9.032;2023-02-04T12:34:59;100086.56;;;25.36;18.79
56713;BME280;42589;45.536;9.032;2023-02-04T12:38:00;100089.91;;;25.83;18.84
56713;BME280;42589;45.536;9.032;2023-02-04T12:41:01;100103.47;;;26.12;18.46
56713;BME280;42589;45.536;9.032;2023-02-04T12:44:02;100084.47;;;26.34;18.69
56713;BME280;42589;45.536;9.032;2023-02-04T12:47:03;100085.16;;;26.07;18.80
56713;BME280;42589;45.536;9.032;2023-02-04T12:50:07;100060.63;;;25.45;18.67
56713;BME280;42589;45.536;9.032;2023-02-04T12:53:08;100065.09;;;25.22;18.64
56713;BME280;42589;45.536;9.032;2023-02-04T12:56:09;100105.56;;;26.55;18.81
56713;BME280;42589;45.536;9.032;2023-02-04T12:59:13;100065.84;;;25.06;19.40
56713;BME280;42589;45.536;9.032;2023-02-04T13:02:14;100051.44;;;24.94;19.29
56713;BME280;42589;45.536;9.032;2023-02-04T13:05:15;100085.63;;;25.59;19.30
56713;BME280;42589;45.536;9.032;2023-02-04T13:08:16;100072.81;;;25.42;18.94
56713;BME280;42589;45.536;9.032;2023-02-04T13:11:17;100058.06;;;25.38;18.59
56713;BME280;42589;45.536;9.032;2023-02-04T13:14:18;100038.06;;;25.78;18.40
56713;BME280;42589;45.536;9.032;2023-02-04T13:17:19;100075.19;;;24.98;18.92
56713;BME280;42589;45.536;9.032;2023-02-04T13:20:20;100092.03;;;24.72;19.23
56713;BME280;42589;45.536;9.032;2023-02-04T13:23:20;100085.97;;;24.82;19.26
56713;BME280;42589;45.536;9.032;2023-02-04T13:26:22;100097.31;;;25.42;19.19
56713;BME280;42589;45.536;9.032;2023-02-04T13:29:23;100070.88;;;25.83;18.39
56713;BME280;42589;45.536;9.032;2023-02-04T13:32:23;100069.81;;;25.27;18.50
56713;BME280;42589;45.536;9.032;2023-02-04T13:35:25;100084.06;;;25.06;18.73
56713;BME280;42589;45.536;9.032;2023-02-04T13:38:26;100088.84;;;24.51;19.22
56713;BME280;42589;45.536;9.032;2023-02-04T13:41:27;100063.97;;;24.83;19.14
56713;BME280;42589;45.536;9.032;2023-02-04T13:44:28;100098.16;;;24.67;19.03
56713;BME280;42589;45.536;9.032;2023-02-04T13:47:29;100077.28;;;25.08;18.99
56713;BME280;42589;45.536;9.032;2023-02-04T13:50:30;100089.19;;;24.78;19.39
56713;BME280;42589;45.536;9.032;2023-02-04T13:53:34;100073.56;;;24.86;19.24
56713;BME280;42589;45.536;9.032;2023-02-04T13:56:35;100069.03;;;25.43;18.60
56713;BME280;42589;45.536;9.032;2023-02-04T13:59:36;100069.88;;;25.44;18.64
56713;BME280;42589;45.536;9.032;2023-02-04T14:02:37;100059.22;;;25.42;18.34
56713;BME280;42589;45.536;9.032;2023-02-04T14:05:38;100086.94;;;25.28;18.75
56713;BME280;42589;45.536;9.032;2023-02-04T14:08:39;100103.72;;;24.72;19.70
56713;BME280;42589;45.536;9.032;2023-02-04T14:11:40;100097.75;;;25.51;18.71
56713;BME280;42589;45.536;9.032;2023-02-04T14:14:41;100112.00;;;24.66;19.34
56713;BME280;42589;45.536;9.032;2023-02-04T14:17:41;100111.41;;;24.75;19.14
56713;BME280;42589;45.536;9.032;2023-02-04T14:20:42;100118.34;;;25.07;19.07
56713;BME280;42589;45.536;9.032;2023-02-04T14:23:43;100112.63;;;24.02;19.46
56713;BME280;42589;45.536;9.032;2023-02-04T14:26:44;100106.28;;;24.32;19.08
56713;BME280;42589;45.536;9.032;2023-02-04T14:29:45;100130.84;;;24.14;19.38
56713;BME280;42589;45.536;9.032;2023-02-04T14:32:46;100135.47;;;24.25;19.09
56713;BME280;42589;45.536;9.032;2023-02-04T14:35:47;100134.19;;;24.86;18.63
56713;BME280;42589;45.536;9.032;2023-02-04T14:38:48;100124.88;;;24.47;19.35
56713;BME280;42589;45.536;9.032;2023-02-04T14:41:49;100122.22;;;25.11;18.65
56713;BME280;42589;45.536;9.032;2023-02-04T14:44:50;100137.84;;;24.80;18.79
56713;BME280;42589;45.536;9.032;2023-02-04T14:47:54;100126.53;;;24.48;18.75
56713;BME280;42589;45.536;9.032;2023-02-04T14:50:56;100140.00;;;24.54;18.46
56713;BME280;42589;45.536;9.032;2023-02-04T14:53:57;100130.41;;;23.86;18.96
56713;BME280;42589;45.536;9.032;2023-02-04T14:56:58;100158.22;;;23.70;18.55
56713;BME280;42589;45.536;9.032;2023-02-04T14:59:59;100151.72;;;24.13;18.55
56713;BME280;42589;45.536;9.032;2023-02-04T15:03:00;100149.63;;;24.39;17.96
56713;BME280;42589;45.536;9.032;2023-02-04T15:06:02;100152.13;;;24.40;17.78
56713;BME280;42589;45.536;9.032;2023-02-04T15:09:03;100138.16;;;24.13;17.90
56713;BME280;42589;45.536;9.032;2023-02-04T15:12:04;100150.09;;;24.36;18.02
56713;BME280;42589;45.536;9.032;2023-02-04T15:15:10;100154.13;;;24.21;18.06
56713;BME280;42589;45.536;9.032;2023-02-04T15:18:11;100160.06;;;24.42;17.57
56713;BME280;42589;45.536;9.032;2023-02-04T15:21:11;100182.81;;;24.29;17.40
56713;BME280;42589;45.536;9.032;2023-02-04T15:24:14;100174.63;;;23.75;17.38
56713;BME280;42589;45.536;9.032;2023-02-04T15:27:15;100171.31;;;25.04;16.68
56713;BME280;42589;45.536;9.032;2023-02-04T15:30:16;100183.38;;;24.61;16.72
56713;BME280;42589;45.536;9.032;2023-02-04T15:33:17;100183.13;;;24.09;16.89
56713;BME280;42589;45.536;9.032;2023-02-04T15:36:18;100189.47;;;24.33;16.71
56713;BME280;42589;45.536;9.032;2023-02-04T15:39:20;100215.66;;;23.49;16.81
56713;BME280;42589;45.536;9.032;2023-02-04T15:42:21;100203.03;;;22.99;17.06
56713;BME280;42589;45.536;9.032;2023-02-04T15:45:22;100205.78;;;23.54;16.24
56713;BME280;42589;45.536;9.032;2023-02-04T15:48:22;100212.34;;;24.25;16.14
56713;BME280;42589;45.536;9.032;2023-02-04T15:51:27;100225.88;;;23.83;15.91
56713;BME280;42589;45.536;9.032;2023-02-04T15:54:28;100207.19;;;23.75;15.91
56713;BME280;42589;45.536;9.032;2023-02-04T15:57:33;100235.22;;;22.89;16.21
56713;BME280;42589;45.536;9.032;2023-02-04T16:00:34;100244.66;;;22.55;16.15
56713;BME280;42589;45.536;9.032;2023-02-04T16:03:35;100235.47;;;23.12;15.66
56713;BME280;42589;45.536;9.032;2023-02-04T16:06:35;100243.94;;;22.98;15.71
56713;BME280;42589;45.536;9.032;2023-02-04T16:09:36;100240.94;;;23.06;15.61
56713;BME280;42589;45.536;9.032;2023-02-04T16:12:37;100248.72;;;22.70;15.67
56713;BME280;42589;45.536;9.032;2023-02-04T16:15:38;100272.50;;;22.68;15.48
56713;BME280;42589;45.536;9.032;2023-02-04T16:18:39;100273.44;;;22.24;15.44
56713;BME280;42589;45.536;9.032;2023-02-04T16:21:40;100263.63;;;22.30;15.09
56713;BME280;42589;45.536;9.032;2023-02-04T16:24:45;100276.69;;;22.64;14.87
56713;BME280;42589;45.536;9.032;2023-02-04T16:27:46;100262.31;;;22.32;14.60
56713;BME280;42589;45.536;9.032;2023-02-04T16:30:48;100296.00;;;22.05;14.80
56713;BME280;42589;45.536;9.032;2023-02-04T16:33:49;100264.78;;;22.40;14.55
56713;BME280;42589;45.536;9.032;2023-02-04T16:36:50;100281.06;;;22.34;14.46
56713;BME280;42589;45.536;9.032;2023-02-04T16:39:51;100282.78;;;22.28;14.41